Time;durP1;ratioP1;P1;durP2;ratioP2;P2;SDS_P1;SDS_P2;PMS_P1;PMS_P2;Temp;Humidity;BMP_temperature;BMP_pressure;BME280_temperature;BME280_humidity;BME280_pressure;Samples;Min_cycle;Max_cycle;Signal;HPM_P1;HPM_P2
2022/05/19 00:01:54;;;;;;;2.70;2.60;;;21.20;49.00;;;;;;5034158;28;20415;-57
2022/05/19 00:04:20;;;;;;;2.83;2.73;;;21.20;49.80;;;;;;5040504;28;20471;-57
2022/05/19 00:06:46;;;;;;;2.90;2.80;;;21.20;49.10;;;;;;5038939;28;20455;-57
2022/05/19 00:09:12;;;;;;;2.77;2.67;;;21.20;49.00;;;;;;5039786;28;20223;-57
2022/05/19 00:11:39;;;;;;;2.60;2.50;;;21.20;49.00;;;;;;5038844;28;20211;-58
2022/05/19 00:14:04;;;;;;;2.13;2.03;;;21.20;49.00;;;;;;5037392;28;20510;-57
2022/05/19 00:16:30;;;;;;;2.90;2.80;;;21.20;49.00;;;;;;5039371;28;20426;-57
2022/05/19 00:18:56;;;;;;;4.97;2.33;;;21.20;49.00;;;;;;5039951;28;20297;-57
2022/05/19 00:21:22;;;;;;;2.33;2.23;;;21.20;49.00;;;;;;5038708;28;21520;-57
2022/05/19 00:23:48;;;;;;;2.70;2.60;;;21.20;49.00;;;;;;5035079;28;20615;-58
2022/05/19 00:26:13;;;;;;;2.90;2.80;;;21.20;49.00;;;;;;5038552;28;20282;-57
2022/05/19 00:28:39;;;;;;;2.53;2.43;;;21.20;49.00;;;;;;5038101;28;20306;-58
2022/05/19 00:31:05;;;;;;;2.60;2.50;;;21.20;49.00;;;;;;5039534;28;20562;-58
2022/05/19 00:33:30;;;;;;;2.50;2.40;;;21.20;49.00;;;;;;5038679;28;20223;-57
2022/05/19 00:35:56;;;;;;;2.20;2.10;;;21.20;49.00;;;;;;5036066;28;20250;-57
2022/05/19 00:38:22;;;;;;;3.30;2.53;;;21.20;49.00;;;;;;5038978;28;20242;-58
2022/05/19 00:40:50;;;;;;;2.90;2.77;;;21.20;48.90;;;;;;5039290;28;20219;-57
2022/05/19 00:43:26;;;;;;;2.30;2.20;;;21.20;49.00;;;;;;5036275;28;20226;-57
2022/05/19 00:45:58;;;;;;;2.60;2.40;;;21.20;49.00;;;;;;5032900;28;20463;-58
2022/05/19 00:48:35;;;;;;;2.60;2.50;;;21.20;49.00;;;;;;5034855;28;20490;-57
2022/05/19 00:51:06;;;;;;;2.60;2.50;;;21.20;49.00;;;;;;5038977;28;20435;-57
2022/05/19 00:53:39;;;;;;;2.70;2.60;;;21.20;49.00;;;;;;5039724;28;20441;-57
2022/05/19 00:56:32;;;;;;;2.50;2.40;;;21.20;49.00;;;;;;5036055;28;20451;-58
2022/05/19 00:59:07;;;;;;;2.43;2.33;;;21.20;49.00;;;;;;5029806;28;20461;-57
2022/05/19 01:01:34;;;;;;;2.27;2.10;;;21.20;49.00;;;;;;5035790;28;20438;-58
2022/05/19 01:04:09;;;;;;;2.57;2.47;;;21.20;49.00;;;;;;5036503;28;20449;-57
2022/05/19 01:06:35;;;;;;;2.23;2.13;;;21.20;49.00;;;;;;5037835;28;20975;-58
2022/05/19 01:09:07;;;;;;;2.60;2.50;;;21.20;49.00;;;;;;5035655;28;20419;-57
2022/05/19 01:11:33;;;;;;;2.70;2.60;;;21.20;49.00;;;;;;5038334;28;20432;-58
2022/05/19 01:13:59;;;;;;;2.47;2.37;;;21.20;49.00;;;;;;5033192;28;20448;-57
2022/05/19 01:16:25;;;;;;;2.40;2.30;;;21.20;49.00;;;;;;5040041;28;20962;-57
2022/05/19 01:18:51;;;;;;;2.60;2.50;;;21.20;49.00;;;;;;5040558;28;20688;-57
2022/05/19 01:21:19;;;;;;;2.30;2.20;;;21.20;49.00;;;;;;5028077;28;20523;-57
2022/05/19 01:24:09;;;;;;;2.17;2.07;;;21.20;49.00;;;;;;5037513;28;21031;-57
2022/05/19 01:26:49;;;;;;;2.60;2.50;;;21.20;49.00;;;;;;5036273;28;20456;-58
2022/05/19 01:29:18;;;;;;;2.50;2.40;;;21.20;49.00;;;;;;5032456;28;20460;-57
2022/05/19 01:31:48;;;;;;;2.83;2.63;;;21.20;49.00;;;;;;5036241;28;20523;-58
2022/05/19 01:34:14;;;;;;;2.30;2.20;;;21.20;49.00;;;;;;5032550;28;20460;-57
2022/05/19 01:36:40;;;;;;;2.30;2.20;;;21.20;49.00;;;;;;5039811;28;20448;-58
2022/05/19 01:39:12;;;;;;;2.50;2.40;;;21.20;48.90;;;;;;5037917;28;20460;-57
2022/05/19 01:42:12;;;;;;;2.70;2.60;;;21.20;49.00;;;;;;5040781;28;20222;-58
2022/05/19 01:44:47;;;;;;;2.80;2.70;;;21.20;48.90;;;;;;5036132;28;20468;-58
2022/05/19 01:47:26;;;;;;;2.23;2.13;;;21.20;49.00;;;;;;5036205;28;20863;-57
2022/05/19 01:50:02;;;;;;;2.57;2.47;;;21.20;49.10;;;;;;5038600;28;20483;-57
2022/05/19 01:52:39;;;;;;;2.83;2.67;;;21.20;49.00;;;;;;5019584;28;20444;-57
2022/05/19 01:55:13;;;;;;;2.47;2.37;;;21.20;49.10;;;;;;5035964;28;20444;-58
2022/05/19 01:58:14;;;;;;;2.77;2.67;;;21.20;49.00;;;;;;5033731;28;20429;-58
2022/05/19 02:00:39;;;;;;;2.40;2.30;;;21.20;49.00;;;;;;5012018;28;20435;-58
2022/05/19 02:03:13;;;;;;;2.90;2.77;;;21.20;49.00;;;;;;5038464;28;20807;-58
2022/05/19 02:06:04;;;;;;;2.57;2.47;;;21.20;49.10;;;;;;5034653;28;20227;-58
2022/05/19 02:08:41;;;;;;;2.90;2.70;;;21.20;49.00;;;;;;5037473;28;20456;-57
2022/05/19 02:11:10;;;;;;;2.93;2.83;;;21.20;49.00;;;;;;5037118;28;20462;-57
2022/05/19 02:13:37;;;;;;;2.50;2.40;;;21.20;49.00;;;;;;5038116;28;20430;-57
2022/05/19 02:16:05;;;;;;;2.73;2.63;;;21.20;49.10;;;;;;5038545;28;20454;-57
2022/05/19 02:18:31;;;;;;;3.60;3.40;;;21.20;49.00;;;;;;5032983;28;20805;-57
2022/05/19 02:20:59;;;;;;;2.67;2.57;;;21.20;49.00;;;;;;5035109;28;20546;-57
2022/05/19 02:23:26;;;;;;;2.43;2.33;;;21.20;49.70;;;;;;5036490;28;20532;-57
2022/05/19 02:25:55;;;;;;;2.60;2.40;;;21.20;49.00;;;;;;5040250;28;20455;-57
2022/05/19 02:28:27;;;;;;;2.57;2.47;;;21.20;49.00;;;;;;5035575;28;20483;-57
2022/05/19 02:30:54;;;;;;;2.43;2.33;;;21.20;49.00;;;;;;5037974;28;20953;-57
2022/05/19 02:33:21;;;;;;;3.20;3.00;;;21.20;49.00;;;;;;5030507;28;20445;-57
2022/05/19 02:35:47;;;;;;;2.67;2.57;;;21.20;49.00;;;;;;5035657;28;21324;-57
2022/05/19 02:38:14;;;;;;;3.33;3.03;;;21.20;49.00;;;;;;5035035;28;20493;-57
2022/05/19 02:40:41;;;;;;;2.43;2.33;;;21.20;49.00;;;;;;5031554;28;20539;-57
2022/05/19 02:43:08;;;;;;;2.60;2.50;;;21.20;49.00;;;;;;5037911;28;20446;-57
2022/05/19 02:45:35;;;;;;;2.80;2.70;;;21.20;49.00;;;;;;5035095;28;20558;-57
2022/05/19 02:48:02;;;;;;;2.50;2.40;;;21.20;49.00;;;;;;5040508;28;20453;-57
2022/05/19 02:50:28;;;;;;;3.00;2.80;;;21.30;49.10;;;;;;5040935;28;20443;-57
2022/05/19 02:52:54;;;;;;;2.20;2.10;;;21.20;49.10;;;;;;5037184;28;20437;-57
2022/05/19 02:55:20;;;;;;;2.53;2.43;;;21.30;49.10;;;;;;5034410;28;20938;-57
2022/05/19 02:57:48;;;;;;;2.40;2.30;;;21.20;49.00;;;;;;5026396;28;20221;-57
2022/05/19 03:00:18;;;;;;;2.40;2.30;;;21.20;49.00;;;;;;5022967;28;20215;-57
2022/05/19 03:02:44;;;;;;;2.50;2.40;;;21.20;49.00;;;;;;5039493;28;20430;-58
2022/05/19 03:05:13;;;;;;;2.70;2.50;;;21.20;49.00;;;;;;5041577;28;20472;-58
2022/05/19 03:07:39;;;;;;;2.73;2.63;;;21.30;49.00;;;;;;5038780;28;20227;-57
2022/05/19 03:10:05;;;;;;;2.40;2.30;;;21.20;49.00;;;;;;5038610;28;20498;-58
2022/05/19 03:12:31;;;;;;;2.53;2.43;;;21.30;49.00;;;;;;5039827;28;20239;-57
2022/05/19 03:14:57;;;;;;;2.50;2.40;;;21.30;49.10;;;;;;5042594;28;20463;-57
2022/05/19 03:17:23;;;;;;;2.73;2.63;;;21.30;49.10;;;;;;5036267;28;20215;-57
2022/05/19 03:19:52;;;;;;;2.47;2.37;;;21.20;49.00;;;;;;5038178;28;20307;-57
2022/05/19 03:22:18;;;;;;;2.87;2.77;;;21.20;49.00;;;;;;5039699;28;20230;-57
2022/05/19 03:24:43;;;;;;;2.77;2.67;;;21.20;49.00;;;;;;5043509;28;21347;-57
2022/05/19 03:27:09;;;;;;;2.60;2.40;;;21.20;49.00;;;;;;5043173;28;20225;-57
2022/05/19 03:29:34;;;;;;;2.87;2.77;;;21.20;49.00;;;;;;5040940;28;20214;-58
2022/05/19 03:32:00;;;;;;;2.67;2.57;;;21.20;49.00;;;;;;5022945;28;20230;-57
2022/05/19 03:34:26;;;;;;;2.90;2.80;;;21.20;49.00;;;;;;5039494;28;20230;-57
2022/05/19 03:36:51;;;;;;;2.90;2.80;;;21.20;49.00;;;;;;5037246;28;20787;-58
2022/05/19 03:39:18;;;;;;;2.90;2.70;;;21.20;49.00;;;;;;5038673;28;20239;-58
2022/05/19 03:41:44;;;;;;;3.10;3.00;;;21.20;49.00;;;;;;5037771;28;20214;-57
2022/05/19 03:44:10;;;;;;;2.87;2.77;;;21.20;49.00;;;;;;5039098;28;20471;-57
2022/05/19 03:46:36;;;;;;;2.90;2.80;;;21.30;49.00;;;;;;5039187;28;20265;-58
2022/05/19 03:49:01;;;;;;;2.70;2.60;;;21.20;49.00;;;;;;5039113;28;20895;-57
2022/05/19 03:51:29;;;;;;;2.93;2.73;;;21.20;49.00;;;;;;5040928;28;20698;-57
2022/05/19 03:53:56;;;;;;;2.50;2.40;;;21.20;49.00;;;;;;5037983;28;20226;-57
2022/05/19 03:56:23;;;;;;;2.60;2.50;;;21.20;49.00;;;;;;5039063;28;20449;-58
2022/05/19 03:58:50;;;;;;;2.97;2.83;;;21.20;49.00;;;;;;5037236;28;20444;-57
2022/05/19 04:01:16;;;;;;;2.77;2.67;;;21.20;49.00;;;;;;5034821;28;20452;-62
2022/05/19 04:03:42;;;;;;;2.50;2.40;;;21.30;49.10;;;;;;5038536;28;21077;-61
2022/05/19 04:06:07;;;;;;;2.50;2.40;;;21.20;49.00;;;;;;5036038;28;20496;-59
2022/05/19 04:08:33;;;;;;;2.70;2.60;;;21.20;49.00;;;;;;5034966;28;20225;-59
2022/05/19 04:10:59;;;;;;;2.70;2.60;;;21.30;49.10;;;;;;5038497;28;20226;-60
2022/05/19 04:13:25;;;;;;;2.57;2.47;;;21.30;49.00;;;;;;5039988;28;20227;-59
2022/05/19 04:15:50;;;;;;;2.23;2.13;;;21.30;49.80;;;;;;5038118;28;20215;-59
2022/05/19 04:18:16;;;;;;;2.80;2.70;;;21.30;49.00;;;;;;5038158;28;20216;-58
2022/05/19 04:20:43;;;;;;;3.00;2.90;;;21.30;49.10;;;;;;5038673;28;20249;-58
2022/05/19 04:23:10;;;;;;;2.83;2.73;;;21.20;49.00;;;;;;5038328;28;20684;-57
2022/05/19 04:25:36;;;;;;;3.13;3.00;;;21.30;49.10;;;;;;5037804;28;20463;-57
2022/05/19 04:28:02;;;;;;;2.73;2.63;;;21.30;49.00;;;;;;5037130;28;20456;-58
2022/05/19 04:30:28;;;;;;;2.47;2.37;;;21.30;49.10;;;;;;5038202;28;20415;-58
2022/05/19 04:32:54;;;;;;;2.30;2.20;;;21.20;49.00;;;;;;5039282;28;20493;-58
2022/05/19 04:35:19;;;;;;;3.13;2.70;;;21.30;49.10;;;;;;5036917;28;20262;-63
2022/05/19 04:37:46;;;;;;;2.90;2.70;;;21.20;49.00;;;;;;5039934;28;20238;-61
2022/05/19 04:40:13;;;;;;;3.00;2.90;;;21.30;49.10;;;;;;5033706;28;20264;-60
2022/05/19 04:42:39;;;;;;;2.90;2.70;;;21.30;49.10;;;;;;5035001;28;20423;-61
2022/05/19 04:45:06;;;;;;;3.30;3.10;;;21.30;49.10;;;;;;5033003;28;20469;-59
2022/05/19 04:47:32;;;;;;;3.30;3.00;;;21.30;49.00;;;;;;5035048;28;20492;-59
2022/05/19 04:49:57;;;;;;;3.03;2.93;;;21.30;49.00;;;;;;5036283;28;20912;-58
2022/05/19 04:52:23;;;;;;;3.07;2.97;;;21.40;49.00;;;;;;5039339;28;20314;-58
2022/05/19 04:54:49;;;;;;;2.90;2.80;;;21.40;49.00;;;;;;5036389;28;20603;-58
2022/05/19 04:57:14;;;;;;;2.60;2.50;;;21.40;49.00;;;;;;5033339;28;20251;-58
2022/05/19 04:59:42;;;;;;;2.67;2.57;;;21.40;49.00;;;;;;5034027;28;20479;-59
2022/05/19 05:02:09;;;;;;;2.90;2.80;;;21.40;48.90;;;;;;5036324;28;20222;-59
2022/05/19 05:04:35;;;;;;;3.13;2.93;;;21.50;49.00;;;;;;5036241;28;20464;-58
2022/05/19 05:07:01;;;;;;;3.47;3.17;;;21.50;49.10;;;;;;5032767;28;20444;-58
2022/05/19 05:09:27;;;;;;;3.10;2.90;;;21.50;49.10;;;;;;5036270;28;20456;-58
2022/05/19 05:11:52;;;;;;;3.27;2.53;;;21.50;49.10;;;;;;5021630;28;20673;-58
2022/05/19 05:14:18;;;;;;;2.97;2.77;;;21.50;49.00;;;;;;5032784;28;20488;-59
2022/05/19 05:16:53;;;;;;;3.40;2.80;;;21.50;49.80;;;;;;5035812;28;20655;-59
2022/05/19 05:19:22;;;;;;;2.70;2.50;;;21.50;49.00;;;;;;5038744;28;21018;-60
2022/05/19 05:21:50;;;;;;;3.77;3.47;;;21.50;49.00;;;;;;5039009;28;20528;-61
2022/05/19 05:24:16;;;;;;;3.90;3.10;;;21.50;49.00;;;;;;5038359;28;20983;-60
2022/05/19 05:26:42;;;;;;;2.77;2.57;;;21.50;49.10;;;;;;5032387;28;20534;-59
2022/05/19 05:29:08;;;;;;;3.27;2.60;;;21.50;49.10;;;;;;5021191;28;20950;-59
2022/05/19 05:31:34;;;;;;;3.00;2.80;;;21.50;49.10;;;;;;5038086;28;20210;-59
2022/05/19 05:34:01;;;;;;;2.90;2.70;;;21.50;49.10;;;;;;5034955;28;20226;-59
2022/05/19 05:36:27;;;;;;;2.50;2.30;;;21.50;49.10;;;;;;5033065;28;21294;-59
2022/05/19 05:38:52;;;;;;;3.00;2.80;;;21.50;49.20;;;;;;5037832;28;20478;-58
2022/05/19 05:41:18;;;;;;;3.33;3.13;;;21.50;49.10;;;;;;5034586;28;20237;-58
2022/05/19 05:43:43;;;;;;;3.10;2.90;;;21.50;49.10;;;;;;5028963;28;20218;-58
2022/05/19 05:46:12;;;;;;;3.00;2.90;;;21.50;49.10;;;;;;5028624;28;20238;-58
2022/05/19 05:48:38;;;;;;;2.80;2.70;;;21.50;49.20;;;;;;5029051;28;20628;-58
2022/05/19 05:51:08;;;;;;;3.33;2.90;;;21.50;49.20;;;;;;5032781;28;20440;-58
2022/05/19 05:53:36;;;;;;;2.87;2.77;;;21.50;49.20;;;;;;5033428;28;20464;-58
2022/05/19 05:56:04;;;;;;;3.37;3.13;;;21.50;49.20;;;;;;5017649;28;21253;-61
2022/05/19 05:58:29;;;;;;;3.37;2.87;;;21.50;49.20;;;;;;5034909;28;20906;-59
2022/05/19 06:00:55;;;;;;;3.20;3.00;;;21.50;49.20;;;;;;5037460;28;20439;-59
2022/05/19 06:03:21;;;;;;;2.77;2.67;;;21.50;49.20;;;;;;5029777;28;20238;-60
2022/05/19 06:05:46;;;;;;;2.90;2.80;;;21.50;49.20;;;;;;5031216;28;20246;-58
2022/05/19 06:08:12;;;;;;;3.00;2.80;;;21.50;49.20;;;;;;5034125;28;20235;-58
2022/05/19 06:10:38;;;;;;;2.97;2.77;;;21.50;49.30;;;;;;5021955;28;20219;-59
2022/05/19 06:13:05;;;;;;;3.10;2.90;;;21.50;49.30;;;;;;5036300;28;20222;-59
2022/05/19 06:15:30;;;;;;;3.07;2.87;;;21.50;49.20;;;;;;5037895;28;20523;-59
2022/05/19 06:17:57;;;;;;;3.43;3.23;;;21.50;49.30;;;;;;5030405;28;20993;-58
2022/05/19 06:20:23;;;;;;;2.83;2.63;;;21.40;49.20;;;;;;5034625;28;20220;-59
2022/05/19 06:22:49;;;;;;;3.00;2.90;;;21.40;49.20;;;;;;5039116;28;20440;-61
2022/05/19 06:25:18;;;;;;;3.13;2.93;;;21.40;49.20;;;;;;5037952;28;20466;-59
2022/05/19 06:27:45;;;;;;;3.20;3.00;;;21.40;49.20;;;;;;5037292;28;20314;-60
2022/05/19 06:30:12;;;;;;;2.93;2.70;;;21.40;49.20;;;;;;5032443;28;20434;-58
2022/05/19 06:32:39;;;;;;;2.93;2.73;;;21.40;49.20;;;;;;5036344;28;20527;-58
2022/05/19 06:35:07;;;;;;;2.60;2.50;;;21.40;49.20;;;;;;5032263;28;20591;-59
2022/05/19 06:37:33;;;;;;;3.40;3.20;;;21.40;49.20;;;;;;5039429;28;20476;-58
2022/05/19 06:39:59;;;;;;;3.17;2.97;;;21.40;49.20;;;;;;5030437;28;20444;-58
2022/05/19 06:42:25;;;;;;;3.30;3.10;;;21.40;49.20;;;;;;5030578;28;20238;-58
2022/05/19 06:44:50;;;;;;;3.20;3.00;;;21.40;49.20;;;;;;5035399;28;20230;-58
2022/05/19 06:47:16;;;;;;;3.00;2.90;;;21.40;49.20;;;;;;5032767;28;20696;-58
2022/05/19 06:49:51;;;;;;;3.37;3.17;;;21.40;49.20;;;;;;5033682;28;20260;-58
2022/05/19 06:52:22;;;;;;;2.63;2.53;;;21.40;49.20;;;;;;5033438;28;20944;-58
2022/05/19 06:54:51;;;;;;;3.40;3.20;;;21.40;49.20;;;;;;5028029;28;20480;-58
2022/05/19 06:57:18;;;;;;;3.30;3.10;;;21.40;49.20;;;;;;5032897;28;20468;-58
2022/05/19 06:59:44;;;;;;;3.17;3.07;;;21.40;49.30;;;;;;5034056;28;20556;-59
2022/05/19 07:02:10;;;;;;;3.13;2.93;;;21.40;49.30;;;;;;5034704;28;20590;-58
2022/05/19 07:04:37;;;;;;;3.37;3.17;;;21.40;49.30;;;;;;5031876;28;20460;-58
2022/05/19 07:07:06;;;;;;;2.73;2.53;;;21.40;49.30;;;;;;5037529;28;20427;-58
2022/05/19 07:09:36;;;;;;;3.23;3.03;;;21.40;49.30;;;;;;5038342;28;20441;-58
2022/05/19 07:12:04;;;;;;;3.00;2.90;;;21.40;49.30;;;;;;5034759;28;20436;-58
2022/05/19 07:14:30;;;;;;;3.20;3.00;;;21.40;49.30;;;;;;5035305;28;20452;-58
2022/05/19 07:16:56;;;;;;;3.10;3.00;;;21.40;49.30;;;;;;5030402;28;20456;-58
2022/05/19 07:22:07;;;;;;;5.70;3.20;;;21.40;50.10;;;;;;5036472;28;20249;-58
2022/05/19 07:24:33;;;;;;;2.67;2.57;;;21.40;49.40;;;;;;5034347;28;20442;-57
2022/05/19 07:27:00;;;;;;;2.97;2.80;;;21.40;49.30;;;;;;5031993;28;20461;-58
2022/05/19 07:29:27;;;;;;;3.13;2.93;;;21.40;49.30;;;;;;5032113;28;20456;-58
2022/05/19 07:31:58;;;;;;;2.60;2.40;;;21.40;49.30;;;;;;5032403;28;20699;-58
2022/05/19 07:34:24;;;;;;;3.00;2.90;;;21.40;49.30;;;;;;5035722;28;20456;-58
2022/05/19 07:36:50;;;;;;;2.97;2.77;;;21.40;49.30;;;;;;5038050;28;20452;-58
2022/05/19 07:39:15;;;;;;;3.07;2.97;;;21.40;49.30;;;;;;5034711;28;20564;-58
2022/05/19 07:41:41;;;;;;;4.07;3.23;;;21.40;49.30;;;;;;5039557;28;20250;-58
2022/05/19 07:44:08;;;;;;;3.00;2.80;;;21.40;50.10;;;;;;5037361;28;20281;-58
2022/05/19 07:46:36;;;;;;;3.47;3.27;;;21.40;49.30;;;;;;5031162;28;20306;-58
2022/05/19 07:49:03;;;;;;;3.10;3.00;;;21.40;49.30;;;;;;5041080;28;20426;-59
2022/05/19 07:51:36;;;;;;;2.80;2.70;;;21.40;49.30;;;;;;5033190;28;20419;-57
2022/05/19 07:54:03;;;;;;;3.30;3.10;;;21.40;49.30;;;;;;5040417;28;20436;-58
2022/05/19 07:56:28;;;;;;;2.83;2.73;;;21.40;49.30;;;;;;5039329;28;20595;-57
2022/05/19 07:58:54;;;;;;;3.07;2.87;;;21.40;49.30;;;;;;5036996;28;20911;-58
2022/05/19 08:01:19;;;;;;;6.47;3.20;;;21.40;49.30;;;;;;5031888;28;20233;-58
2022/05/19 08:03:45;;;;;;;3.30;3.20;;;21.40;49.30;;;;;;5036233;28;20231;-57
2022/05/19 08:06:11;;;;;;;2.70;2.57;;;21.40;49.20;;;;;;5032161;28;20231;-58
2022/05/19 08:08:40;;;;;;;3.03;2.83;;;21.40;49.20;;;;;;5037712;28;20269;-58
2022/05/19 08:11:07;;;;;;;3.10;2.90;;;21.40;49.20;;;;;;5032622;28;20235;-58
2022/05/19 08:16:16;;;;;;;2.97;2.77;;;21.40;49.30;;;;;;5033013;28;20480;-58
2022/05/19 08:18:42;;;;;;;3.47;3.20;;;21.40;49.30;;;;;;5036915;28;20460;-59
2022/05/19 08:21:11;;;;;;;3.80;3.60;;;21.40;49.20;;;;;;5041535;28;20222;-59
2022/05/19 08:23:40;;;;;;;3.37;3.10;;;21.40;49.20;;;;;;5033257;28;20237;-58
2022/05/19 08:26:10;;;;;;;3.23;3.10;;;21.40;49.20;;;;;;5037330;28;20480;-58
2022/05/19 08:28:37;;;;;;;3.30;3.10;;;21.40;49.20;;;;;;5036714;28;20463;-58
2022/05/19 08:31:06;;;;;;;2.80;2.70;;;21.40;49.20;;;;;;5034341;28;20536;-59
2022/05/19 08:33:33;;;;;;;2.80;2.70;;;21.40;49.20;;;;;;5037344;28;20971;-58
2022/05/19 08:35:59;;;;;;;3.53;3.33;;;21.40;49.20;;;;;;5039575;28;20498;-58
2022/05/19 08:38:24;;;;;;;3.00;2.90;;;21.40;49.20;;;;;;5031463;28;20465;-58
2022/05/19 08:41:20;;;;;;;2.80;2.60;;;21.40;49.20;;;;;;5033996;28;20277;-58
2022/05/19 08:43:57;;;;;;;3.10;2.90;;;21.40;49.10;;;;;;5013423;28;20562;-57
2022/05/19 08:46:32;;;;;;;2.93;2.83;;;21.40;49.10;;;;;;5038076;28;20428;-58
2022/05/19 08:49:22;;;;;;;3.67;3.47;;;21.40;49.20;;;;;;5039196;28;21121;-58
2022/05/19 08:51:56;;;;;;;4.13;2.73;;;21.40;49.10;;;;;;5028955;28;20924;-58
2022/05/19 08:54:24;;;;;;;2.77;2.67;;;21.40;49.20;;;;;;5034722;28;20491;-58
2022/05/19 08:57:03;;;;;;;4.73;3.03;;;21.40;49.20;;;;;;5033494;28;21019;-58
2022/05/19 08:59:53;;;;;;;3.10;2.90;;;21.40;49.20;;;;;;5031659;28;20821;-57
2022/05/19 09:02:55;;;;;;;3.17;2.97;;;21.40;49.20;;;;;;5029771;28;20464;-58
2022/05/19 09:06:01;;;;;;;3.50;3.20;;;21.40;49.10;;;;;;5028891;28;20496;-58
2022/05/19 09:09:02;;;;;;;3.30;3.10;;;21.40;49.20;;;;;;5037734;28;20422;-58
2022/05/19 09:11:39;;;;;;;2.93;2.83;;;21.40;49.20;;;;;;5037448;28;20494;-58
2022/05/19 09:14:26;;;;;;;2.83;2.63;;;21.30;49.10;;;;;;5031478;28;20545;-58
2022/05/19 09:16:57;;;;;;;3.30;3.10;;;21.30;49.10;;;;;;5035522;28;20474;-58
2022/05/19 09:19:52;;;;;;;3.00;2.90;;;21.40;49.20;;;;;;5031734;28;20535;-58
2022/05/19 09:22:24;;;;;;;3.87;3.67;;;21.30;49.10;;;;;;5029223;28;20555;-58
2022/05/19 09:24:52;;;;;;;2.80;2.70;;;21.30;49.10;;;;;;5035216;28;20480;-57
2022/05/19 09:27:19;;;;;;;2.77;2.67;;;21.40;49.20;;;;;;5033214;28;20453;-58
2022/05/19 09:29:56;;;;;;;3.30;3.10;;;21.40;49.30;;;;;;5034758;28;20458;-58
2022/05/19 09:32:29;;;;;;;3.10;2.90;;;21.40;49.20;;;;;;5035502;28;20535;-59
2022/05/19 09:35:23;;;;;;;3.57;3.37;;;21.30;49.20;;;;;;5030279;28;21008;-58
2022/05/19 09:38:02;;;;;;;3.37;3.17;;;21.30;49.20;;;;;;5034345;28;21241;-60
2022/05/19 09:40:30;;;;;;;3.40;3.10;;;21.40;50.10;;;;;;5034944;28;20453;-58
2022/05/19 09:43:16;;;;;;;3.03;2.90;;;21.30;49.20;;;;;;5036865;28;20882;-59
2022/05/19 09:45:51;;;;;;;3.47;3.27;;;21.30;49.30;;;;;;5032779;28;20924;-58
2022/05/19 09:48:24;;;;;;;3.13;3.00;;;21.30;49.20;;;;;;5038474;28;20614;-58
2022/05/19 09:50:50;;;;;;;3.80;3.50;;;21.30;49.20;;;;;;5028016;28;20531;-58
2022/05/19 09:53:25;;;;;;;3.43;3.23;;;21.30;49.20;;;;;;5032912;28;21221;-58
2022/05/19 09:56:00;;;;;;;3.60;3.10;;;21.30;49.30;;;;;;5037475;28;20233;-58
2022/05/19 09:58:31;;;;;;;3.40;3.10;;;21.40;49.30;;;;;;5032556;28;20448;-58
2022/05/19 10:01:03;;;;;;;3.17;2.97;;;21.30;49.20;;;;;;5034377;28;20447;-58
2022/05/19 10:03:43;;;;;;;3.63;3.37;;;21.30;49.20;;;;;;5034207;28;20448;-58
2022/05/19 10:06:20;;;;;;;2.93;2.83;;;21.30;49.20;;;;;;5032067;28;20504;-58
2022/05/19 10:08:47;;;;;;;3.20;3.00;;;21.30;49.20;;;;;;5031937;28;20498;-58
2022/05/19 10:11:12;;;;;;;3.43;3.23;;;21.30;49.20;;;;;;5027974;28;20958;-58
2022/05/19 10:13:56;;;;;;;3.03;2.83;;;21.40;49.40;;;;;;5033707;28;20452;-58
2022/05/19 10:16:33;;;;;;;3.20;3.00;;;21.30;49.20;;;;;;5033942;28;20223;-58
2022/05/19 10:19:09;;;;;;;3.50;3.30;;;21.30;49.20;;;;;;5032023;28;20451;-57
2022/05/19 10:21:38;;;;;;;2.97;2.87;;;21.30;49.30;;;;;;5031259;28;20487;-57
2022/05/19 10:24:44;;;;;;;3.50;3.30;;;21.30;49.30;;;;;;5030321;28;20969;-58
2022/05/19 10:33:14;;;;;;;3.63;3.33;;;21.30;49.30;;;;;;5031909;28;21017;-57
2022/05/19 10:36:11;;;;;;;3.60;3.30;;;21.30;49.30;;;;;;5033443;28;20410;-57
2022/05/19 10:38:48;;;;;;;3.83;3.63;;;21.30;49.30;;;;;;5033808;28;20540;-58
2022/05/19 10:41:26;;;;;;;3.50;3.30;;;21.30;49.30;;;;;;5030305;28;20455;-57
2022/05/19 10:43:51;;;;;;;3.80;3.50;;;21.30;49.40;;;;;;5032514;28;20468;-57
2022/05/19 10:46:22;;;;;;;3.43;3.23;;;21.30;49.40;;;;;;5038631;28;20573;-58
2022/05/19 10:49:11;;;;;;;4.47;4.17;;;21.30;49.30;;;;;;5026639;28;20215;-58
2022/05/19 10:51:42;;;;;;;4.00;3.80;;;21.30;49.40;;;;;;5036790;28;20863;-58
2022/05/19 10:54:23;;;;;;;4.27;4.07;;;21.30;49.40;;;;;;5032456;28;20489;-58
2022/05/19 10:57:10;;;;;;;3.10;2.90;;;21.30;49.30;;;;;;5038272;28;21337;-58
2022/05/19 11:00:01;;;;;;;3.43;3.23;;;21.30;49.50;;;;;;5033480;28;20514;-58
2022/05/19 11:02:39;;;;;;;3.47;3.27;;;21.30;49.40;;;;;;5030785;28;20478;-58
2022/05/19 11:05:09;;;;;;;3.53;3.33;;;21.30;49.50;;;;;;5029576;28;20467;-58
2022/05/19 11:07:56;;;;;;;3.50;3.30;;;21.30;49.50;;;;;;5039269;28;20454;-58
2022/05/19 11:10:32;;;;;;;3.97;3.60;;;21.30;49.40;;;;;;5040916;28;20456;-58
2022/05/19 11:13:25;;;;;;;4.37;4.07;;;21.30;49.50;;;;;;5038857;28;20460;-58
2022/05/19 11:16:00;;;;;;;4.53;4.23;;;21.30;50.20;;;;;;5031017;28;20535;-58
2022/05/19 11:18:58;;;;;;;4.93;4.73;;;21.30;49.50;;;;;;5039422;28;20474;-59
2022/05/19 11:21:41;;;;;;;4.80;4.50;;;21.30;49.50;;;;;;4996462;28;20451;-58
2022/05/19 11:27:40;;;;;;;4.63;4.33;;;21.30;49.40;;;;;;4987913;28;21301;-60
2022/05/19 11:30:09;;;;;;;4.90;4.50;;;21.30;49.50;;;;;;5036621;28;20486;-59
2022/05/19 11:32:37;;;;;;;4.40;4.10;;;21.30;49.50;;;;;;5035927;28;20465;-59
2022/05/19 11:35:17;;;;;;;5.23;4.67;;;21.30;49.50;;;;;;5037679;28;20529;-59
2022/05/19 11:38:07;;;;;;;4.83;4.53;;;21.30;49.50;;;;;;5036282;28;21226;-59
2022/05/19 11:41:07;;;;;;;6.23;5.40;;;21.30;49.50;;;;;;5036184;28;20448;-60
2022/05/19 11:43:51;;;;;;;6.10;5.50;;;21.30;49.50;;;;;;5006911;28;20418;-56
2022/05/19 11:46:40;;;;;;;5.23;4.60;;;21.30;49.50;;;;;;5030787;28;20829;-59
2022/05/19 11:55:32;;;;;;;5.27;4.90;;;21.30;49.60;;;;;;5039925;28;20462;-59
2022/05/19 11:58:04;;;;;;;5.83;5.47;;;21.30;50.30;;;;;;5041193;28;20528;-59
2022/05/19 12:00:58;;;;;;;5.53;5.13;;;21.30;49.60;;;;;;5036638;28;20452;-59
2022/05/19 12:03:57;;;;;;;5.23;4.93;;;21.30;49.60;;;;;;5034811;28;20488;-59
2022/05/19 12:06:42;;;;;;;5.93;5.63;;;21.30;49.60;;;;;;5034113;28;20483;-59
2022/05/19 12:09:34;;;;;;;5.07;4.77;;;21.30;49.60;;;;;;5034963;28;20596;-59
2022/05/19 12:12:15;;;;;;;5.17;4.87;;;21.30;49.70;;;;;;5037907;28;20481;-59
2022/05/19 12:14:50;;;;;;;5.50;5.10;;;21.30;49.60;;;;;;5034600;28;20457;-60
2022/05/19 12:17:28;;;;;;;5.70;5.30;;;21.30;49.60;;;;;;5036864;28;20457;-59
2022/05/19 12:19:58;;;;;;;5.07;4.77;;;21.30;49.70;;;;;;5035705;28;20553;-59
2022/05/19 12:22:26;;;;;;;5.73;5.33;;;21.30;50.40;;;;;;5031874;28;20476;-59
2022/05/19 12:25:26;;;;;;;4.83;4.53;;;21.30;49.70;;;;;;5035020;28;20516;-59
2022/05/19 12:28:13;;;;;;;4.80;4.50;;;21.30;49.60;;;;;;5029525;28;20939;-59
2022/05/19 12:33:36;;;;;;;5.23;4.40;;;21.30;49.60;;;;;;5038463;28;20506;-59
2022/05/19 12:36:16;;;;;;;4.60;4.30;;;21.40;49.70;;;;;;5032238;28;20459;-59
2022/05/19 12:38:44;;;;;;;4.70;4.30;;;21.40;49.50;;;;;;5035182;28;20529;-59
2022/05/19 12:41:33;;;;;;;4.60;4.40;;;21.50;49.50;;;;;;5022894;28;20471;-59
2022/05/19 12:44:26;;;;;;;5.60;4.80;;;21.50;49.40;;;;;;5041473;28;20806;-59
2022/05/19 12:47:07;;;;;;;4.73;4.33;;;21.50;49.40;;;;;;5032500;28;20438;-59
2022/05/19 12:49:35;;;;;;;4.50;4.10;;;21.50;49.40;;;;;;5032246;28;20446;-59
2022/05/19 12:52:17;;;;;;;4.17;3.97;;;21.50;49.40;;;;;;5031214;28;20422;-59
2022/05/19 12:55:24;;;;;;;4.33;4.03;;;21.50;49.40;;;;;;5034697;28;20448;-59
2022/05/19 12:57:51;;;;;;;3.80;3.60;;;21.50;49.30;;;;;;5035543;28;20536;-59
2022/05/19 13:00:25;;;;;;;4.77;4.30;;;21.50;49.40;;;;;;5034973;28;20460;-59
2022/05/19 13:03:05;;;;;;;13.10;4.70;;;21.50;49.50;;;;;;5036715;28;20509;-60
2022/05/19 13:05:39;;;;;;;4.60;4.40;;;21.50;49.50;;;;;;5035031;28;20655;-59
2022/05/19 13:08:10;;;;;;;4.00;3.70;;;21.50;49.50;;;;;;5039531;28;20450;-60
2022/05/19 13:10:40;;;;;;;4.90;4.40;;;21.50;49.50;;;;;;5034845;28;20488;-60
2022/05/19 13:13:16;;;;;;;4.53;4.20;;;21.50;49.70;;;;;;5032604;28;20448;-60
2022/05/19 13:16:12;;;;;;;4.57;4.37;;;21.50;49.70;;;;;;5034631;28;20519;-59
2022/05/19 13:18:42;;;;;;;4.53;4.17;;;21.40;49.60;;;;;;5038095;28;20481;-59
2022/05/19 13:21:11;;;;;;;4.50;4.23;;;21.40;49.70;;;;;;5032794;28;20462;-61
2022/05/19 13:23:40;;;;;;;4.57;4.37;;;21.40;49.70;;;;;;5033545;28;20452;-61
2022/05/19 13:26:27;;;;;;;4.60;4.20;;;21.40;49.70;;;;;;5034424;28;20465;-61
2022/05/19 13:32:02;;;;;;;4.27;4.07;;;21.40;49.80;;;;;;5031730;28;20446;-60
2022/05/19 13:34:38;;;;;;;4.17;3.97;;;21.40;49.80;;;;;;5035039;28;20418;-60
2022/05/19 13:37:06;;;;;;;4.97;4.57;;;21.40;49.80;;;;;;5036247;28;20790;-61
2022/05/19 13:39:31;;;;;;;4.70;4.40;;;21.40;49.80;;;;;;5037043;28;20490;-60